Time;durP1;ratioP1;P1;durP2;ratioP2;P2;SDS_P1;SDS_P2;PMS_P1;PMS_P2;Temp;Humidity;BMP_temperature;BMP_pressure;BME280_temperature;BME280_humidity;BME280_pressure;Samples;Min_cycle;Max_cycle;Signal;HPM_P1;HPM_P2
2023/04/17 00:01:21;;;;;;;;;;;;;;;11.98;88.88;99016.22;5092918;28;19916;-43
2023/04/17 00:03:47;;;;;;;;;;;;;;;11.78;90.12;99010.34;5092777;28;19950;-42
2023/04/17 00:06:12;;;;;;;;;;;;;;;12.06;86.54;99010.53;5092594;28;20415;-43
2023/04/17 00:08:39;;;;;;;;;;;;;;;11.92;86.92;99006.47;5092630;28;19915;-43
2023/04/17 00:11:04;;;;;;;;;;;;;;;11.90;87.95;99011.22;5092807;28;19956;-43
2023/04/17 00:13:29;;;;;;;;;;;;;;;11.64;88.94;99007.06;5092286;28;19916;-43
2023/04/17 00:15:55;;;;;;;;;;;;;;;11.34;89.94;99007.91;5092490;28;19919;-44
2023/04/17 00:18:20;;;;;;;;;;;;;;;11.52;89.22;99010.53;5091778;28;19919;-43
2023/04/17 00:20:45;;;;;;;;;;;;;;;11.97;87.40;99009.25;5092203;28;20314;-43
2023/04/17 00:23:10;;;;;;;;;;;;;;;11.58;87.76;99006.13;5092294;28;19923;-43
2023/04/17 00:25:36;;;;;;;;;;;;;;;11.62;88.40;99004.63;5090941;28;20302;-43
2023/04/17 00:28:01;;;;;;;;;;;;;;;11.90;86.59;99014.69;5092421;28;19916;-43
2023/04/17 00:30:26;;;;;;;;;;;;;;;11.83;87.19;99010.47;5092378;28;19991;-43
2023/04/17 00:32:52;;;;;;;;;;;;;;;11.62;87.51;99015.28;5092403;28;19913;-42
2023/04/17 00:35:17;;;;;;;;;;;;;;;11.46;89.02;99016.75;5091853;28;19919;-42
2023/04/17 00:37:42;;;;;;;;;;;;;;;11.55;88.31;99026.03;5092259;28;19960;-43
2023/04/17 00:40:08;;;;;;;;;;;;;;;11.49;88.59;99015.50;5092105;28;19912;-43
2023/04/17 00:42:33;;;;;;;;;;;;;;;11.50;88.79;99022.47;5092069;28;20401;-42
2023/04/17 00:44:58;;;;;;;;;;;;;;;11.40;88.77;99022.97;5091665;28;19945;-43
2023/04/17 00:47:25;;;;;;;;;;;;;;;11.66;87.81;99015.66;5091916;28;19912;-43
2023/04/17 00:49:50;;;;;;;;;;;;;;;11.59;87.70;99023.72;5091960;28;19912;-44
2023/04/17 00:52:23;;;;;;;;;;;;;;;11.40;88.40;99017.66;5090135;28;19962;-44
2023/04/17 00:54:48;;;;;;;;;;;;;;;11.48;88.96;99024.50;5091741;28;19923;-43
2023/04/17 00:57:13;;;;;;;;;;;;;;;11.25;89.69;99026.06;5091711;28;19924;-43
2023/04/17 00:59:40;;;;;;;;;;;;;;;11.53;88.41;99020.13;5091928;28;19919;-45
2023/04/17 01:02:05;;;;;;;;;;;;;;;11.88;86.72;99014.09;5090537;28;20264;-44
2023/04/17 01:04:30;;;;;;;;;;;;;;;11.81;86.12;99020.56;5091625;28;19941;-44
2023/04/17 01:06:58;;;;;;;;;;;;;;;11.79;85.96;99020.78;5091611;28;20406;-44
2023/04/17 01:09:23;;;;;;;;;;;;;;;11.72;86.64;99012.88;5091428;28;19916;-43
2023/04/17 01:11:48;;;;;;;;;;;;;;;11.73;85.87;99017.19;5091475;28;19920;-43
2023/04/17 01:14:14;;;;;;;;;;;;;;;11.61;87.28;99016.31;5091333;28;19960;-43
2023/04/17 01:16:40;;;;;;;;;;;;;;;11.63;87.09;99013.44;5091641;28;20276;-44
2023/04/17 01:19:07;;;;;;;;;;;;;;;11.61;87.80;99015.50;5091700;28;19912;-44
2023/04/17 01:21:32;;;;;;;;;;;;;;;11.71;87.41;99019.25;5091296;28;19969;-44
2023/04/17 01:24:02;;;;;;;;;;;;;;;11.42;88.34;99015.56;5091326;28;19920;-44
2023/04/17 01:26:29;;;;;;;;;;;;;;;11.41;88.37;99018.47;5091244;28;19930;-43
2023/04/17 01:28:56;;;;;;;;;;;;;;;11.63;86.50;99018.75;5091929;28;19961;-45
2023/04/17 01:31:21;;;;;;;;;;;;;;;11.39;88.14;99015.22;5095749;28;20424;-45
2023/04/17 01:33:47;;;;;;;;;;;;;;;11.26;89.31;99016.22;5095749;28;19962;-44
2023/04/17 01:36:13;;;;;;;;;;;;;;;11.42;88.98;99017.44;5095628;28;19946;-44
2023/04/17 01:38:38;;;;;;;;;;;;;;;11.38;89.01;99021.59;5085201;28;19916;-44
2023/04/17 01:41:08;;;;;;;;;;;;;;;11.51;87.52;99021.41;5075488;28;20361;-44
2023/04/17 01:43:35;;;;;;;;;;;;;;;11.47;88.21;99014.91;5075231;28;19920;-44
2023/04/17 01:46:01;;;;;;;;;;;;;;;11.65;87.35;99011.34;5074958;28;19917;-44
2023/04/17 01:48:26;;;;;;;;;;;;;;;11.62;87.10;99001.97;5075189;28;19912;-44
2023/04/17 01:50:51;;;;;;;;;;;;;;;11.30;87.73;99001.41;5075090;28;19923;-38
2023/04/17 01:53:17;;;;;;;;;;;;;;;11.32;87.71;99005.47;5074954;28;20059;-37
2023/04/17 01:55:42;;;;;;;;;;;;;;;11.08;90.17;99009.91;5074932;28;19920;-37
2023/04/17 01:58:07;;;;;;;;;;;;;;;11.52;88.52;99001.72;5074791;28;19913;-37
2023/04/17 02:00:33;;;;;;;;;;;;;;;11.48;86.83;99004.03;5075225;28;19919;-37
2023/04/17 02:02:58;;;;;;;;;;;;;;;11.37;87.43;98994.16;5074633;28;19978;-37
2023/04/17 02:05:23;;;;;;;;;;;;;;;11.09;90.70;98992.88;5074716;28;19935;-37
2023/04/17 02:07:49;;;;;;;;;;;;;;;11.11;89.60;99001.44;5074406;28;20284;-37
2023/04/17 02:10:15;;;;;;;;;;;;;;;11.31;89.28;99006.50;5093344;28;19941;-37
2023/04/17 02:12:40;;;;;;;;;;;;;;;11.40;88.27;99000.84;5095069;28;20353;-37
2023/04/17 02:15:05;;;;;;;;;;;;;;;11.26;88.67;98993.06;5095124;28;19912;-38
2023/04/17 02:17:31;;;;;;;;;;;;;;;11.34;88.18;98992.72;5094628;28;20383;-38
2023/04/17 02:19:56;;;;;;;;;;;;;;;11.61;86.96;98991.53;5094864;28;19920;-38
2023/04/17 02:22:21;;;;;;;;;;;;;;;11.38;87.62;98981.63;5094695;28;19947;-37
2023/04/17 02:24:46;;;;;;;;;;;;;;;11.22;88.30;98986.56;5093064;28;19916;-37
2023/04/17 02:27:12;;;;;;;;;;;;;;;11.25;88.67;98993.28;5094604;28;19928;-37
2023/04/17 02:29:37;;;;;;;;;;;;;;;11.49;86.56;98986.97;5094771;28;20032;-37
2023/04/17 02:32:02;;;;;;;;;;;;;;;11.34;86.52;98982.06;5094710;28;19912;-37
2023/04/17 02:34:28;;;;;;;;;;;;;;;11.23;88.07;98985.53;5094865;28;19999;-37
2023/04/17 02:36:53;;;;;;;;;;;;;;;11.27;88.30;98988.53;5093976;28;19916;-37
2023/04/17 02:39:18;;;;;;;;;;;;;;;11.44;86.32;98989.53;5094576;28;20011;-37
2023/04/17 02:41:43;;;;;;;;;;;;;;;11.37;86.50;98996.00;5093685;28;19965;-37
2023/04/17 02:44:09;;;;;;;;;;;;;;;11.41;87.32;98997.16;5094225;28;19999;-37
2023/04/17 02:46:34;;;;;;;;;;;;;;;11.07;87.00;98997.59;5094207;28;19916;-38
2023/04/17 02:48:59;;;;;;;;;;;;;;;10.88;88.05;98991.50;5094124;28;20367;-37
2023/04/17 02:51:25;;;;;;;;;;;;;;;11.12;87.94;99004.94;5093963;28;19916;-37
2023/04/17 02:53:50;;;;;;;;;;;;;;;11.01;88.44;98998.50;5093765;28;19919;-37
2023/04/17 02:56:16;;;;;;;;;;;;;;;11.21;88.08;99000.09;5093958;28;20014;-37
2023/04/17 02:58:43;;;;;;;;;;;;;;;11.17;87.18;99002.38;5094048;28;19961;-37
2023/04/17 03:01:09;;;;;;;;;;;;;;;11.25;86.26;99003.94;5096703;28;19950;-38
2023/04/17 03:03:37;;;;;;;;;;;;;;;10.78;89.11;98998.41;5114456;28;19916;-36
2023/04/17 03:06:02;;;;;;;;;;;;;;;10.51;91.87;99001.34;5114307;27;19969;-37
2023/04/17 03:08:28;;;;;;;;;;;;;;;10.56;91.54;98993.50;5109782;28;20008;-44
2023/04/17 03:10:54;;;;;;;;;;;;;;;10.75;89.94;98973.03;5093500;28;19912;-37
2023/04/17 03:13:19;;;;;;;;;;;;;;;11.01;87.94;98985.19;5093834;28;19912;-37
2023/04/17 03:15:45;;;;;;;;;;;;;;;11.17;87.41;98996.25;5093686;28;19912;-37
2023/04/17 03:18:10;;;;;;;;;;;;;;;11.00;87.95;98996.88;5093593;28;19912;-37
2023/04/17 03:20:35;;;;;;;;;;;;;;;11.11;85.78;98995.31;5093536;28;20344;-37
2023/04/17 03:23:01;;;;;;;;;;;;;;;11.02;85.47;98994.78;5093522;28;19978;-37
2023/04/17 03:25:26;;;;;;;;;;;;;;;10.89;84.99;98984.31;5093112;28;19999;-37
2023/04/17 03:27:51;;;;;;;;;;;;;;;10.73;85.15;98977.75;5093559;28;19932;-36
2023/04/17 03:30:17;;;;;;;;;;;;;;;10.54;83.52;98975.09;5093604;28;20316;-36
2023/04/17 03:32:42;;;;;;;;;;;;;;;10.69;81.64;98984.56;5093572;28;19916;-36
2023/04/17 03:35:07;;;;;;;;;;;;;;;10.72;81.64;98979.63;5093230;28;19919;-36
2023/04/17 03:37:32;;;;;;;;;;;;;;;10.70;81.22;98980.84;5093287;28;19985;-36
2023/04/17 03:39:58;;;;;;;;;;;;;;;11.03;80.21;98982.31;5093347;28;19919;-37
2023/04/17 03:42:23;;;;;;;;;;;;;;;10.79;80.80;98981.38;5092009;28;19935;-37
2023/04/17 03:44:48;;;;;;;;;;;;;;;10.85;80.89;98983.97;5092148;28;20009;-36
2023/04/17 03:47:14;;;;;;;;;;;;;;;11.07;79.74;98992.28;5092184;28;20026;-37
2023/04/17 03:49:39;;;;;;;;;;;;;;;10.75;80.97;98991.66;5091695;28;19961;-36
2023/04/17 03:52:05;;;;;;;;;;;;;;;10.96;80.15;98988.50;5091439;28;19935;-37
2023/04/17 03:54:34;;;;;;;;;;;;;;;11.09;79.22;98992.06;5090883;28;19970;-36
2023/04/17 03:57:00;;;;;;;;;;;;;;;11.30;79.08;98994.22;5091331;28;20023;-37
2023/04/17 03:59:25;;;;;;;;;;;;;;;10.81;81.59;98993.41;5091732;28;20008;-34
2023/04/17 04:01:52;;;;;;;;;;;;;;;10.99;81.27;99005.09;5091253;28;20224;-36
2023/04/17 04:04:18;;;;;;;;;;;;;;;10.97;81.30;99010.66;5091125;28;19963;-36
2023/04/17 04:06:43;;;;;;;;;;;;;;;10.90;81.96;99009.91;5091319;28;19948;-36
2023/04/17 04:09:09;;;;;;;;;;;;;;;10.96;81.90;99007.16;5091131;28;19970;-36
2023/04/17 04:11:34;;;;;;;;;;;;;;;11.16;81.02;99014.09;5091244;28;19916;-36
2023/04/17 04:13:59;;;;;;;;;;;;;;;11.02;81.79;99016.09;5091406;28;19912;-37
2023/04/17 04:16:26;;;;;;;;;;;;;;;11.25;80.92;99023.41;5091128;28;20444;-37
2023/04/17 04:18:51;;;;;;;;;;;;;;;11.28;81.28;99019.47;5091312;28;19912;-37
2023/04/17 04:21:16;;;;;;;;;;;;;;;11.18;82.72;99020.00;5091112;28;20371;-37
2023/04/17 04:23:44;;;;;;;;;;;;;;;11.11;82.66;99019.28;5090881;28;19923;-37
2023/04/17 04:26:10;;;;;;;;;;;;;;;11.31;81.24;99024.34;5090499;28;19924;-35
2023/04/17 04:28:37;;;;;;;;;;;;;;;11.46;81.32;99034.56;5091301;28;19962;-35
2023/04/17 04:31:03;;;;;;;;;;;;;;;11.25;81.23;99038.56;5091648;28;20296;-35
2023/04/17 04:33:28;;;;;;;;;;;;;;;11.47;81.82;99042.34;5091590;28;19919;-36
2023/04/17 04:35:55;;;;;;;;;;;;;;;11.54;81.64;99044.94;5091484;28;19912;-36
2023/04/17 04:38:28;;;;;;;;;;;;;;;11.27;83.38;99039.97;5091367;28;19912;-36
2023/04/17 04:41:00;;;;;;;;;;;;;;;11.74;80.33;99039.31;5091510;28;20333;-36
2023/04/17 04:43:27;;;;;;;;;;;;;;;11.81;81.15;99044.56;5091489;28;19912;-36
2023/04/17 04:45:52;;;;;;;;;;;;;;;11.85;80.98;99053.72;5091141;28;20079;-36
2023/04/17 04:48:18;;;;;;;;;;;;;;;11.85;80.18;99051.84;5091264;28;19954;-36
2023/04/17 04:50:43;;;;;;;;;;;;;;;11.91;79.56;99060.81;5091294;28;20284;-36
2023/04/17 04:53:08;;;;;;;;;;;;;;;11.77;81.39;99052.19;5091321;28;19980;-36
2023/04/17 04:55:33;;;;;;;;;;;;;;;11.92;80.55;99054.47;5091340;28;19913;-36
2023/04/17 04:57:59;;;;;;;;;;;;;;;11.78;82.55;99050.31;5091270;28;20311;-36
2023/04/17 05:00:25;;;;;;;;;;;;;;;11.79;82.03;99051.97;5091736;28;19912;-36
2023/04/17 05:02:50;;;;;;;;;;;;;;;11.74;82.72;99052.63;5091775;28;19912;-36
2023/04/17 05:05:15;;;;;;;;;;;;;;;11.63;84.17;99058.75;5091456;28;19947;-36
2023/04/17 05:07:41;;;;;;;;;;;;;;;11.76;83.75;99065.75;5091337;28;20359;-36
2023/04/17 05:10:06;;;;;;;;;;;;;;;11.99;82.34;99059.69;5091491;28;19993;-36
2023/04/17 05:12:33;;;;;;;;;;;;;;;11.73;84.42;99057.16;5091476;28;19950;-36
2023/04/17 05:14:59;;;;;;;;;;;;;;;12.01;84.21;99061.06;5091316;28;19919;-36
2023/04/17 05:17:24;;;;;;;;;;;;;;;12.21;83.41;99070.63;5090303;28;19912;-36
2023/04/17 05:19:50;;;;;;;;;;;;;;;12.32;82.75;99070.63;5089336;28;20356;-36
2023/04/17 05:22:15;;;;;;;;;;;;;;;12.45;82.58;99074.94;5089490;28;19912;-36
2023/04/17 05:24:40;;;;;;;;;;;;;;;12.49;82.42;99070.75;5089666;28;20246;-36
2023/04/17 05:27:07;;;;;;;;;;;;;;;12.77;80.73;99071.88;5088671;28;21305;-36
2023/04/17 05:29:33;;;;;;;;;;;;;;;12.93;80.02;99061.53;5090002;28;19920;-36
2023/04/17 05:31:58;;;;;;;;;;;;;;;12.85;77.96;99060.88;5090138;28;20009;-37
2023/04/17 05:34:23;;;;;;;;;;;;;;;12.49;79.99;99056.59;5091302;28;19912;-37
2023/04/17 05:36:48;;;;;;;;;;;;;;;12.62;80.21;99060.88;5090932;28;19978;-37
2023/04/17 05:39:14;;;;;;;;;;;;;;;12.97;80.42;99052.81;5091134;28;19969;-37
2023/04/17 05:41:39;;;;;;;;;;;;;;;13.16;80.11;99050.00;5090966;28;20466;-37
2023/04/17 05:44:06;;;;;;;;;;;;;;;13.34;78.94;99049.81;5090643;28;20027;-37
2023/04/17 05:46:31;;;;;;;;;;;;;;;13.58;78.30;99044.41;5090625;28;19943;-37
2023/04/17 05:48:56;;;;;;;;;;;;;;;13.66;77.13;99044.81;5090563;28;19955;-37
2023/04/17 05:51:22;;;;;;;;;;;;;;;13.82;75.24;99048.56;5090889;28;19912;-37
2023/04/17 05:53:47;;;;;;;;;;;;;;;13.92;73.29;99055.94;5090895;28;19919;-37
2023/04/17 05:56:13;;;;;;;;;;;;;;;14.03;73.01;99064.94;5090840;28;19916;-37
2023/04/17 05:58:38;;;;;;;;;;;;;;;14.31;71.57;99065.94;5090750;28;20376;-37
2023/04/17 06:01:05;;;;;;;;;;;;;;;14.28;70.75;99072.59;5090717;28;19920;-37
2023/04/17 06:03:31;;;;;;;;;;;;;;;14.37;69.82;99071.09;5091010;28;19912;-37
2023/04/17 06:05:57;;;;;;;;;;;;;;;14.39;68.36;99070.84;5090631;28;19917;-37
2023/04/17 06:08:22;;;;;;;;;;;;;;;14.16;68.92;99061.94;5090793;28;19923;-37
2023/04/17 06:10:49;;;;;;;;;;;;;;;14.07;70.08;99061.56;5091040;28;19912;-37
2023/04/17 06:13:14;;;;;;;;;;;;;;;14.20;71.09;99067.63;5090541;28;19951;-37
2023/04/17 06:15:39;;;;;;;;;;;;;;;14.31;69.46;99077.44;5091191;28;19918;-37
2023/04/17 06:18:05;;;;;;;;;;;;;;;14.48;68.22;99085.44;5092971;28;19919;-37
2023/04/17 06:20:30;;;;;;;;;;;;;;;14.57;68.74;99072.50;5094942;28;20295;-37
2023/04/17 06:22:55;;;;;;;;;;;;;;;14.39;69.98;99089.59;5094539;28;19955;-37
2023/04/17 06:25:21;;;;;;;;;;;;;;;14.58;67.69;99082.16;5094823;28;19924;-37
2023/04/17 06:27:46;;;;;;;;;;;;;;;14.78;67.04;99095.03;5094844;28;20072;-37
2023/04/17 06:30:12;;;;;;;;;;;;;;;14.64;66.51;99102.56;5094669;28;19912;-37
2023/04/17 06:32:41;;;;;;;;;;;;;;;14.50;67.68;99106.63;5094525;28;19912;-37
2023/04/17 06:35:07;;;;;;;;;;;;;;;15.02;65.69;99100.97;5094689;28;19935;-37
2023/04/17 06:37:32;;;;;;;;;;;;;;;15.36;67.26;99111.56;5091889;28;20423;-36
2023/04/17 06:39:57;;;;;;;;;;;;;;;15.64;66.13;99116.72;5093426;28;19991;-37
2023/04/17 06:42:23;;;;;;;;;;;;;;;15.83;64.11;99117.22;5092223;28;19951;-37
2023/04/17 06:44:49;;;;;;;;;;;;;;;15.27;66.59;99123.78;5090213;28;19916;-37
2023/04/17 06:47:14;;;;;;;;;;;;;;;15.04;67.82;99125.63;5090167;28;19927;-37
2023/04/17 06:49:39;;;;;;;;;;;;;;;15.27;65.85;99118.41;5094084;28;19912;-37
2023/04/17 06:52:05;;;;;;;;;;;;;;;14.91;66.32;99118.78;5089491;28;20477;-37
2023/04/17 06:54:30;;;;;;;;;;;;;;;14.88;66.60;99116.59;5092221;28;19918;-38
2023/04/17 06:56:55;;;;;;;;;;;;;;;14.82;66.49;99120.25;5093632;28;19955;-37
2023/04/17 06:59:20;;;;;;;;;;;;;;;14.69;66.32;99118.72;5087496;28;19916;-37
2023/04/17 07:01:46;;;;;;;;;;;;;;;14.68;67.07;99122.47;5087257;28;19923;-37
2023/04/17 07:04:11;;;;;;;;;;;;;;;14.71;66.49;99119.28;5093138;28;20410;-37
2023/04/17 07:06:38;;;;;;;;;;;;;;;14.77;66.01;99120.19;5088626;28;19924;-35
2023/04/17 07:09:04;;;;;;;;;;;;;;;14.96;65.07;99121.50;5087124;28;19915;-36
2023/04/17 07:11:29;;;;;;;;;;;;;;;15.18;64.95;99132.25;5092402;28;19923;-36
2023/04/17 07:13:55;;;;;;;;;;;;;;;14.93;64.52;99132.75;5092460;28;20301;-42
2023/04/17 07:16:21;;;;;;;;;;;;;;;14.75;64.94;99131.13;5092472;28;19999;-41
2023/04/17 07:18:47;;;;;;;;;;;;;;;14.70;66.34;99127.56;5091623;28;19919;-42
2023/04/17 07:21:12;;;;;;;;;;;;;;;14.67;66.17;99134.22;5091257;28;19912;-43
2023/04/17 07:23:37;;;;;;;;;;;;;;;14.50;67.47;99130.72;5091607;28;20010;-41
2023/04/17 07:26:03;;;;;;;;;;;;;;;14.39;69.12;99137.78;5092177;28;19977;-43
2023/04/17 07:28:28;;;;;;;;;;;;;;;14.43;70.25;99136.22;5091887;28;19912;-43
2023/04/17 07:30:53;;;;;;;;;;;;;;;14.59;69.82;99134.66;5091997;28;19962;-43
2023/04/17 07:33:19;;;;;;;;;;;;;;;14.43;72.06;99136.22;5091926;28;19928;-42
2023/04/17 07:35:45;;;;;;;;;;;;;;;14.57;71.89;99139.44;5091856;28;19924;-42
2023/04/17 07:38:10;;;;;;;;;;;;;;;14.72;70.82;99144.22;5091934;28;19916;-42
2023/04/17 07:40:35;;;;;;;;;;;;;;;14.43;73.08;99141.59;5091433;28;20319;-42
2023/04/17 07:43:00;;;;;;;;;;;;;;;14.37;73.44;99129.97;5091317;28;19916;-42
2023/04/17 07:45:27;;;;;;;;;;;;;;;14.34;73.52;99130.47;5091368;28;20008;-43
2023/04/17 07:47:52;;;;;;;;;;;;;;;14.37;74.66;99139.88;5090823;28;19932;-43
2023/04/17 07:50:18;;;;;;;;;;;;;;;14.41;73.90;99135.66;5091759;28;19923;-43
2023/04/17 07:52:43;;;;;;;;;;;;;;;13.85;76.03;99138.19;5091729;28;19916;-42
2023/04/17 07:55:08;;;;;;;;;;;;;;;14.07;75.37;99139.13;5090960;28;19926;-42
2023/04/17 07:57:34;;;;;;;;;;;;;;;13.89;76.26;99139.34;5091430;28;19919;-42
2023/04/17 07:59:59;;;;;;;;;;;;;;;14.14;75.21;99149.66;5091874;28;19912;-43
2023/04/17 08:02:25;;;;;;;;;;;;;;;13.99;76.36;99144.06;5091827;28;20003;-43
2023/04/17 08:04:51;;;;;;;;;;;;;;;14.28;74.97;99142.97;5091340;28;20513;-43
2023/04/17 08:07:17;;;;;;;;;;;;;;;14.46;74.25;99139.22;5090638;28;19924;-42
2023/04/17 08:09:43;;;;;;;;;;;;;;;14.12;75.66;99135.72;5097225;28;19928;-44
2023/04/17 08:12:08;;;;;;;;;;;;;;;13.97;76.29;99133.59;5098129;28;19939;-43
2023/04/17 08:14:33;;;;;;;;;;;;;;;13.99;75.86;99134.19;5090773;28;19916;-43
2023/04/17 08:16:59;;;;;;;;;;;;;;;14.04;76.46;99131.56;5088934;28;20160;-43
2023/04/17 08:19:24;;;;;;;;;;;;;;;14.30;75.01;99126.69;5091203;28;19919;-42
2023/04/17 08:21:50;;;;;;;;;;;;;;;14.08;76.04;99131.91;5092269;28;20469;-42
2023/04/17 08:24:16;;;;;;;;;;;;;;;14.17;77.03;99135.81;5094702;28;20070;-43
2023/04/17 08:26:41;;;;;;;;;;;;;;;14.32;75.93;99140.63;5095781;28;19924;-43
2023/04/17 08:29:07;;;;;;;;;;;;;;;14.44;75.23;99132.50;5097633;28;20306;-44
2023/04/17 08:31:35;;;;;;;;;;;;;;;14.38;75.78;99134.28;5090511;28;19916;-42
2023/04/17 08:34:01;;;;;;;;;;;;;;;14.49;75.72;99127.25;5101003;28;19916;-43
2023/04/17 08:36:26;;;;;;;;;;;;;;;14.24;77.16;99132.97;5095448;28;19916;-42
2023/04/17 08:38:51;;;;;;;;;;;;;;;14.42;76.53;99130.06;5090488;28;19914;-43
2023/04/17 08:41:21;;;;;;;;;;;;;;;13.94;78.81;99128.75;5091301;28;19912;-42
2023/04/17 08:43:48;;;;;;;;;;;;;;;14.35;77.16;99120.59;5091296;28;19918;-44
2023/04/17 08:46:13;;;;;;;;;;;;;;;14.47;76.71;99130.16;5091284;28;19920;-45
2023/04/17 08:48:39;;;;;;;;;;;;;;;14.61;76.06;99133.34;5091061;28;19943;-43
2023/04/17 08:51:04;;;;;;;;;;;;;;;14.37;77.31;99134.53;5094296;28;19912;-43
2023/04/17 08:53:30;;;;;;;;;;;;;;;14.27;77.55;99129.81;5103267;28;20303;-43
2023/04/17 08:55:57;;;;;;;;;;;;;;;14.24;78.41;99138.31;5090382;28;19973;-43
2023/04/17 08:58:25;;;;;;;;;;;;;;;14.62;77.95;99139.50;5090561;28;19955;-42
2023/04/17 09:00:50;;;;;;;;;;;;;;;14.52;78.27;99139.31;5090628;28;20419;-44
2023/04/17 09:03:15;;;;;;;;;;;;;;;14.47;79.45;99140.06;5090986;28;19916;-43
2023/04/17 09:05:42;;;;;;;;;;;;;;;14.21;80.26;99139.63;5091031;28;20032;-41
2023/04/17 09:08:22;;;;;;;;;;;;;;;14.20;81.40;99138.03;5090970;28;19912;-42
2023/04/17 09:10:49;;;;;;;;;;;;;;;14.81;78.65;99138.19;5090762;28;19919;-44
2023/04/17 09:13:16;;;;;;;;;;;;;;;14.71;78.52;99131.88;5091118;28;20425;-42
2023/04/17 09:15:42;;;;;;;;;;;;;;;14.67;78.43;99150.28;5090742;28;19927;-43
2023/04/17 09:18:21;;;;;;;;;;;;;;;14.41;80.13;99152.56;5090624;28;19912;-43
2023/04/17 09:20:48;;;;;;;;;;;;;;;14.69;78.40;99142.81;5090002;28;19919;-42
2023/04/17 09:23:13;;;;;;;;;;;;;;;14.66;78.60;99148.69;5090708;28;19973;-46
2023/04/17 09:25:39;;;;;;;;;;;;;;;14.70;79.09;99139.09;5090714;28;19928;-43
2023/04/17 09:28:11;;;;;;;;;;;;;;;14.75;78.85;99147.19;5091460;28;20265;-43
2023/04/17 09:30:38;;;;;;;;;;;;;;;14.96;78.48;99137.59;5090901;28;19919;-43
2023/04/17 09:33:03;;;;;;;;;;;;;;;14.98;78.24;99135.50;5091515;28;20281;-43
2023/04/17 09:35:29;;;;;;;;;;;;;;;15.06;77.31;99136.94;5091217;28;19919;-43
2023/04/17 09:37:55;;;;;;;;;;;;;;;15.02;76.90;99135.78;5091156;28;19919;-42
2023/04/17 09:40:21;;;;;;;;;;;;;;;15.16;76.90;99133.59;5079247;28;19920;-42
2023/04/17 09:43:00;;;;;;;;;;;;;;;15.27;76.42;99135.34;5085019;28;19920;-42
2023/04/17 09:45:34;;;;;;;;;;;;;;;15.17;76.88;99132.50;5090585;28;20018;-41
2023/04/17 09:47:59;;;;;;;;;;;;;;;15.38;76.07;99134.41;5091022;28;19991;-43
2023/04/17 09:50:25;;;;;;;;;;;;;;;15.76;73.88;99130.03;5089854;28;20039;-43
2023/04/17 09:52:51;;;;;;;;;;;;;;;15.62;74.86;99132.25;5111719;28;19963;-40
2023/04/17 09:55:20;;;;;;;;;;;;;;;15.90;74.01;99125.06;5114095;28;19915;-42
2023/04/17 09:57:47;;;;;;;;;;;;;;;15.81;74.78;99131.94;5114811;28;19930;-42
2023/04/17 10:00:13;;;;;;;;;;;;;;;15.86;74.86;99132.00;5102933;28;19977;-42
2023/04/17 10:02:40;;;;;;;;;;;;;;;16.38;72.70;99128.72;5093905;28;19912;-43
2023/04/17 10:05:07;;;;;;;;;;;;;;;16.21;71.38;99130.72;5094298;28;20581;-43
2023/04/17 10:07:35;;;;;;;;;;;;;;;16.27;72.91;99127.00;5094368;28;19912;-44
2023/04/17 10:10:02;;;;;;;;;;;;;;;15.97;72.47;99120.31;5093733;28;19912;-43
2023/04/17 10:12:27;;;;;;;;;;;;;;;15.95;71.96;99126.97;5093876;28;19998;-43
2023/04/17 10:14:53;;;;;;;;;;;;;;;16.21;72.30;99120.78;5094105;28;20015;-42
2023/04/17 10:17:24;;;;;;;;;;;;;;;16.06;71.58;99115.28;5094182;28;19927;-43
2023/04/17 10:19:50;;;;;;;;;;;;;;;16.03;73.12;99113.13;5094220;28;19912;-43
2023/04/17 10:22:18;;;;;;;;;;;;;;;16.08;73.53;99118.50;5093840;28;19968;-43
2023/04/17 10:24:47;;;;;;;;;;;;;;;16.32;72.82;99126.25;5093906;28;19920;-43
2023/04/17 10:27:28;;;;;;;;;;;;;;;16.42;72.78;99120.94;5093967;28;19924;-43
2023/04/17 10:29:57;;;;;;;;;;;;;;;16.88;70.07;99115.13;5093771;28;19948;-42
2023/04/17 10:32:24;;;;;;;;;;;;;;;16.65;70.89;99117.09;5093651;28;19919;-43
2023/04/17 10:34:50;;;;;;;;;;;;;;;16.74;71.64;99122.81;5093391;28;19912;-43
2023/04/17 10:37:16;;;;;;;;;;;;;;;16.96;70.23;99115.44;5093806;28;20000;-41
2023/04/17 10:39:55;;;;;;;;;;;;;;;16.87;71.95;99106.25;5091820;28;20273;-44
2023/04/17 10:42:21;;;;;;;;;;;;;;;16.92;71.64;99113.53;5086982;28;20431;-44
2023/04/17 10:44:47;;;;;;;;;;;;;;;16.86;72.44;99107.31;5093042;28;19916;-42
2023/04/17 10:47:15;;;;;;;;;;;;;;;16.80;73.86;99109.13;5073290;28;19919;-43
2023/04/17 10:49:55;;;;;;;;;;;;;;;16.65;75.09;99100.16;5073043;28;19920;-41
2023/04/17 10:52:39;;;;;;;;;;;;;;;16.27;75.02;99105.53;5103643;28;19911;-44
2023/04/17 10:55:06;;;;;;;;;;;;;;;16.41;77.27;99101.34;5113797;28;19911;-44
2023/04/17 10:57:50;;;;;;;;;;;;;;;16.51;77.51;99094.44;5108738;28;19912;-42
2023/04/17 11:00:15;;;;;;;;;;;;;;;16.41;76.03;99095.16;5093173;28;19912;-42
2023/04/17 11:02:44;;;;;;;;;;;;;;;16.12;77.77;99097.34;5092541;28;19919;-42
2023/04/17 11:05:09;;;;;;;;;;;;;;;16.23;78.65;99091.81;5093010;28;20002;-43
2023/04/17 11:07:35;;;;;;;;;;;;;;;16.37;76.69;99091.38;5092700;28;20046;-43
2023/04/17 11:10:05;;;;;;;;;;;;;;;16.42;77.31;99092.22;5090720;28;19912;-43
2023/04/17 11:12:30;;;;;;;;;;;;;;;16.36;76.92;99089.78;5093267;28;19916;-43
2023/04/17 11:15:00;;;;;;;;;;;;;;;16.47;77.51;99087.94;5080455;28;19934;-42
2023/04/17 11:17:25;;;;;;;;;;;;;;;16.17;78.41;99083.97;5089416;28;19962;-37
2023/04/17 11:19:52;;;;;;;;;;;;;;;16.01;81.04;99081.16;5093009;28;19973;-37
2023/04/17 11:22:18;;;;;;;;;;;;;;;16.22;80.00;99084.00;5093306;28;19919;-37
2023/04/17 11:24:43;;;;;;;;;;;;;;;16.19;79.40;99085.34;5091066;28;19916;-37
2023/04/17 11:27:08;;;;;;;;;;;;;;;16.23;78.91;99086.44;5093101;28;19924;-37
2023/04/17 11:29:34;;;;;;;;;;;;;;;16.21;80.58;99077.84;5092757;28;20417;-36
2023/04/17 11:32:00;;;;;;;;;;;;;;;16.52;78.39;99086.09;5092750;28;19935;-36
2023/04/17 11:34:25;;;;;;;;;;;;;;;16.50;78.64;99092.81;5092637;28;19912;-37
2023/04/17 11:36:51;;;;;;;;;;;;;;;16.67;79.90;99084.59;5092837;28;19971;-36
2023/04/17 11:39:18;;;;;;;;;;;;;;;16.42;80.15;99078.78;5092585;28;19912;-36
2023/04/17 11:41:43;;;;;;;;;;;;;;;16.25;81.67;99080.81;5092364;28;20260;-36
2023/04/17 11:44:09;;;;;;;;;;;;;;;16.27;81.85;99075.19;5092434;28;19912;-35
2023/04/17 11:46:35;;;;;;;;;;;;;;;16.85;78.66;99073.47;5092697;28;19920;-35
2023/04/17 11:49:04;;;;;;;;;;;;;;;16.91;77.40;99076.97;5091449;28;19919;-36
2023/04/17 11:51:30;;;;;;;;;;;;;;;17.24;76.33;99066.91;5093720;28;20277;-36
2023/04/17 11:53:55;;;;;;;;;;;;;;;17.56;74.80;99062.16;5089832;28;19916;-36
2023/04/17 11:56:21;;;;;;;;;;;;;;;17.52;75.02;99057.56;5092720;28;19912;-37
2023/04/17 11:58:48;;;;;;;;;;;;;;;17.27;75.22;99052.91;5092177;28;19959;-36
2023/04/17 12:01:13;;;;;;;;;;;;;;;17.05;75.34;99064.66;5091705;28;19951;-37
2023/04/17 12:03:39;;;;;;;;;;;;;;;17.25;75.85;99055.06;5092307;28;19954;-35
2023/04/17 12:06:05;;;;;;;;;;;;;;;17.28;75.77;99060.72;5088635;28;20070;-35
2023/04/17 12:08:40;;;;;;;;;;;;;;;17.11;73.28;99054.75;5091618;28;20255;-36
2023/04/17 12:11:05;;;;;;;;;;;;;;;17.42;73.27;99055.66;5091025;28;19919;-36
2023/04/17 12:13:31;;;;;;;;;;;;;;;17.52;74.02;99057.56;5090863;28;20327;-36
2023/04/17 12:15:56;;;;;;;;;;;;;;;17.68;70.55;99050.34;5091295;28;19912;-36
2023/04/17 12:18:22;;;;;;;;;;;;;;;17.62;69.90;99054.09;5091556;28;19912;-36
2023/04/17 12:20:47;;;;;;;;;;;;;;;17.35;69.47;99045.16;5090247;28;19920;-36
2023/04/17 12:23:12;;;;;;;;;;;;;;;16.56;70.84;99049.63;5091489;28;19934;-37
2023/04/17 12:25:38;;;;;;;;;;;;;;;16.52;72.23;99039.66;5091140;28;19924;-37
2023/04/17 12:28:03;;;;;;;;;;;;;;;16.79;72.32;99036.84;5091097;28;20369;-36
2023/04/17 12:30:29;;;;;;;;;;;;;;;16.97;71.04;99024.88;5089745;28;19916;-37
2023/04/17 12:32:55;;;;;;;;;;;;;;;17.00;71.44;99029.69;5091256;28;20022;-37
2023/04/17 12:35:21;;;;;;;;;;;;;;;16.87;71.42;99033.69;5091578;28;19916;-37
2023/04/17 12:37:47;;;;;;;;;;;;;;;17.16;69.45;99028.69;5091499;28;19958;-37
2023/04/17 12:40:16;;;;;;;;;;;;;;;17.41;68.43;99024.47;5091446;28;20360;-37
2023/04/17 12:42:41;;;;;;;;;;;;;;;17.03;68.79;99013.06;5091487;28;19934;-36